Latest Weather Observations for Portland Harbour

IDV60801

Issued at 5:05 pm EST Thursday 31 July 2014 (issued every 30 minutes, with the page automatically refreshed every 10 minutes)

About weather observations | Map of weather stations | Latest weather observations for VIC | Other Formats
Station Details ID: 090192 Name: PORTLAND NTC AWS Lat: -38.34 Lon: 141.61 Height: 0.0 m
Data from the previous 72 hours. | See also: Recent months for locations in Victoria
Date/Time
EST
Temp
°C
App
Temp
°C
Dew
Point
Rel
Hum
%
Delta-T
°C
Wind Press
QNH
hPa
Press
MSL
hPa
Rain
since 9 am
mm
Dir
 
Spd
km/h
Gust
km/h
Spd
kts
Gust
kts
31/05:00pm 10.6 - - - - W 37 56 20 30 996.6 996.6 -
31/04:34pm 10.9 - - - - W 37 57 20 31 996.5 - -
31/04:30pm 11.0 - - - - W 39 57 21 31 996.3 - -
31/04:02pm 11.5 - - - - W 41 67 22 36 995.9 - -
31/04:00pm 11.5 - - - - W 39 57 21 31 996.0 996.0 -
31/03:33pm 11.2 - - - - W 28 52 15 28 995.5 - -
31/03:30pm 10.7 - - - - W 26 39 14 21 995.7 - -
31/03:00pm 9.1 - - - - WNW 43 63 23 34 995.9 995.9 -
31/02:55pm 8.5 - - - - WNW 43 56 23 30 995.8 - -
31/02:52pm 6.9 - - - - W 63 89 34 48 995.5 - -
31/02:30pm 11.2 - - - - W 41 70 22 38 995.0 - -
31/02:00pm 10.9 - - - - W 39 70 21 38 994.6 994.6 -
31/01:30pm 11.3 - - - - W 39 61 21 33 995.1 - -
31/01:00pm 9.8 - - - - W 54 96 29 52 994.8 994.8 -
31/12:56pm 10.4 - - - - W 44 96 24 52 994.9 - -
31/12:30pm 9.7 - - - - W 39 67 21 36 995.2 - -
31/12:00pm 9.7 - - - - WSW 46 70 25 38 995.0 995.0 -
31/11:30am 9.6 - - - - W 43 65 23 35 994.9 - -
31/11:00am 10.5 - - - - W 41 69 22 37 994.6 994.6 -
31/10:53am 10.4 - - - - W 41 69 22 37 994.2 - -
31/10:46am 10.6 - - - - W 30 48 16 26 994.4 - -
31/10:30am 10.6 - - - - WSW 28 44 15 24 994.1 - -
31/10:03am 10.8 - - - - W 44 65 24 35 993.8 - -
31/10:00am 13.4 - - - - W 43 56 23 30 993.5 993.5 -
31/09:59am 14.1 - - - - WNW 43 56 23 30 993.2 - -
31/09:30am 14.1 - - - - NNW 54 78 29 42 991.9 - -
31/09:00am 14.1 - - - - NNW 52 83 28 45 992.5 992.5 -
31/08:30am 13.8 - - - - NNW 48 70 26 38 993.2 - -
31/08:00am 13.8 - - - - NNW 44 67 24 36 993.9 993.9 -
31/07:30am 13.5 - - - - NNW 44 63 24 34 994.5 - -
31/07:00am 13.5 - - - - NNW 41 70 22 38 995.1 995.1 -
31/06:46am 13.4 - - - - NNW 37 56 20 30 995.2 - -
31/06:30am 13.1 - - - - NNW 39 56 21 30 995.5 - -
31/06:00am 12.8 - - - - NNW 37 63 20 34 996.2 996.2 -
31/05:30am 13.2 - - - - NNW 33 52 18 28 996.6 - -
31/05:20am 13.4 - - - - NNW 33 52 18 28 996.8 - -
31/05:00am 13.7 - - - - NNW 33 48 18 26 997.2 997.2 -
31/04:42am 13.9 - - - - NNW 37 56 20 30 997.3 - -
31/04:30am 13.9 - - - - NNW 37 52 20 28 997.6 - -
31/04:05am 13.8 - - - - NNW 37 56 20 30 998.1 - -
31/04:00am 13.7 - - - - NNW 35 50 19 27 998.2 998.2 -
31/03:30am 13.8 - - - - NNW 32 52 17 28 999.2 - -
31/03:23am 13.6 - - - - NNW 30 52 16 28 999.3 - -
31/03:00am 13.8 - - - - NW 33 48 18 26 999.8 999.8 -
31/02:39am 14.4 - - - - NNW 33 54 18 29 999.9 - -
31/02:30am 14.2 - - - - NNW 32 43 17 23 1000.2 - -
31/02:02am 14.3 - - - - NNW 37 56 20 30 1000.4 - -
31/02:00am 14.3 - - - - NNW 35 48 19 26 1000.4 1000.4 -
31/01:42am 14.2 - - - - NNW 32 54 17 29 1000.8 - -
31/01:30am 13.9 - - - - NNW 33 44 18 24 1001.0 - -
31/01:00am 14.4 - - - - NNW 35 52 19 28 1001.5 1001.5 -
31/12:30am 14.4 - - - - NNW 37 57 20 31 1002.2 - -
31/12:22am 14.3 - - - - NNW 35 54 19 29 1002.3 - -
31/12:00am 14.4 - - - - NNW 37 54 20 29 1003.0 1003.0 -
 
Date/Time
EST
Temp
°C
App
Temp
°C
Dew
Point
Rel
Hum
%
Delta-T
°C
Wind Press
QNH
hPa
Press
MSL
hPa
Rain
since 9 am
mm
Dir
 
Spd
km/h
Gust
km/h
Spd
kts
Gust
kts
30/11:37pm 14.6 - - - - NNW 39 59 21 32 1003.1 - -
30/11:30pm 14.6 - - - - NNW 37 54 20 29 1003.2 - -
30/11:07pm 14.5 - - - - NW 35 56 19 30 1003.7 - -
30/11:00pm 14.5 - - - - NW 35 50 19 27 1003.8 1003.8 -
30/10:30pm 14.8 - - - - NW 32 52 17 28 1004.5 - -
30/10:00pm 14.5 - - - - NW 35 54 19 29 1004.6 1004.6 -
30/09:30pm 14.8 - - - - NW 35 54 19 29 1004.8 - -
30/09:00pm 14.7 - - - - NW 37 61 20 33 1005.2 1005.2 -
30/08:30pm 14.6 - - - - NNW 41 67 22 36 1005.3 - -
30/08:00pm 14.9 - - - - NW 32 50 17 27 1005.8 1005.8 -
30/07:30pm 14.7 - - - - NW 32 59 17 32 1005.9 - -
30/07:16pm 14.7 - - - - NNW 30 48 16 26 1005.9 - -
30/07:00pm 14.6 - - - - NW 26 41 14 22 1006.0 1006.0 -
30/06:30pm 14.7 - - - - NW 30 43 16 23 1006.5 - -
30/06:01pm 15.1 - - - - NW 28 48 15 26 1006.3 - -
30/06:00pm 15.1 - - - - NW 26 46 14 25 1006.3 1006.3 -
30/05:38pm 15.1 - - - - NW 28 46 15 25 1006.4 - -
30/05:30pm 15.2 - - - - NW 30 44 16 24 1006.4 - -
30/05:00pm 15.3 - - - - NW 30 50 16 27 1006.4 1006.4 -
30/04:30pm 15.4 - - - - NW 35 59 19 32 1006.3 - -
30/04:00pm 15.5 - - - - NW 33 54 18 29 1006.5 1006.5 -
30/03:55pm 15.6 - - - - NW 32 52 17 28 1006.6 - -
30/03:30pm 15.9 - - - - NW 37 52 20 28 1006.4 - -
30/03:00pm 15.9 - - - - WNW 35 56 19 30 1006.6 1006.6 -
30/02:30pm 15.8 - - - - WNW 41 61 22 33 1006.6 - -
30/02:00pm 15.8 - - - - WNW 43 69 23 37 1006.8 1006.8 -
30/01:30pm 15.9 - - - - WNW 39 61 21 33 1007.2 - -
30/01:00pm 15.7 - - - - WNW 37 63 20 34 1007.6 1007.6 -
30/12:30pm 15.6 - - - - WNW 35 65 19 35 1008.3 - -
30/12:00pm 15.4 - - - - WNW 37 57 20 31 1008.6 1008.6 -
30/11:30am 14.2 - - - - WNW 43 69 23 37 1009.1 - -
30/11:01am 15.4 - - - - WNW 30 57 16 31 1009.2 - -
30/11:00am 15.4 - - - - WNW 30 46 16 25 1009.3 1009.3 -
30/10:34am 15.2 - - - - WNW 32 50 17 27 1009.4 - -
30/10:30am 15.0 - - - - NW 30 44 16 24 1009.4 - -
30/10:03am 14.4 - - - - NW 28 50 15 27 1009.5 - -
30/10:00am 14.2 - - - - NW 28 41 15 22 1009.5 1009.5 -
30/09:30am 14.0 - - - - NW 28 41 15 22 1009.6 - -
30/09:00am 13.9 - - - - NW 24 43 13 23 1009.7 1009.7 -
30/08:30am 13.5 - - - - NW 26 37 14 20 1009.6 - -
30/08:00am 13.1 - - - - NW 20 30 11 16 1009.5 1009.5 -
30/07:30am 13.1 - - - - NW 24 37 13 20 1009.4 - -
30/07:00am 13.1 - - - - NW 24 35 13 19 1009.2 1009.2 -
30/06:30am 12.7 - - - - NNW 20 28 11 15 1009.0 - -
30/06:00am 12.4 - - - - NNW 20 30 11 16 1009.0 1009.0 -
30/05:30am 12.5 - - - - NNW 20 33 11 18 1009.1 - -
30/05:00am 12.8 - - - - NNW 19 26 10 14 1009.3 1009.3 -
30/04:30am 13.1 - - - - NW 17 26 9 14 1009.5 - -
30/04:00am 13.4 - - - - NW 17 33 9 18 1009.5 1009.5 -
30/03:30am 13.2 - - - - NW 20 28 11 15 1009.7 - -
30/03:13am 13.4 - - - - WNW 28 50 15 27 1009.8 - -
30/03:00am 14.0 - - - - W 22 33 12 18 1009.7 1009.7 -
30/02:30am 14.0 - - - - WNW 22 33 12 18 1009.8 - -
30/02:00am 13.8 - - - - W 26 41 14 22 1010.1 1010.1 -
30/01:30am 14.2 - - - - W 26 39 14 21 1010.2 - -
30/01:14am 14.3 - - - - W 28 46 15 25 1010.0 - -
30/01:00am 14.1 - - - - W 24 37 13 20 1010.1 1010.1 -
30/12:40am 14.2 - - - - W 28 46 15 25 1009.8 - -
30/12:30am 14.2 - - - - W 26 41 14 22 1009.8 - -
30/12:10am 14.3 - - - - W 28 56 15 30 1009.5 - -
30/12:00am 14.3 - - - - W 24 39 13 21 1009.6 1009.6 -
 
Date/Time
EST
Temp
°C
App
Temp
°C
Dew
Point
Rel
Hum
%
Delta-T
°C
Wind Press
QNH
hPa
Press
MSL
hPa
Rain
since 9 am
mm
Dir
 
Spd
km/h
Gust
km/h
Spd
kts
Gust
kts
29/11:30pm 14.3 - - - - W 22 43 12 23 1009.3 - -
29/11:06pm 14.2 - - - - W 28 46 15 25 1009.2 - -
29/11:00pm 14.2 - - - - W 26 41 14 22 1009.1 1009.1 -
29/10:30pm 14.1 - - - - W 30 52 16 28 1009.0 - -
29/10:00pm 14.2 - - - - W 28 54 15 29 1008.7 1008.7 -
29/09:30pm 13.9 - - - - W 32 54 17 29 1008.5 - -
29/09:01pm 13.6 - - - - WNW 32 57 17 31 1008.2 - -
29/09:00pm 13.9 - - - - WNW 32 44 17 24 1008.4 1008.4 -
29/08:39pm 14.8 - - - - W 30 48 16 26 1007.9 - -
29/08:30pm 14.7 - - - - W 33 44 18 24 1007.8 - -
29/08:00pm 14.7 - - - - W 37 57 20 31 1007.7 1007.7 -
29/07:30pm 14.5 - - - - W 32 50 17 27 1007.4 - -
29/07:12pm 14.6 - - - - W 28 50 15 27 1007.2 - -
29/07:00pm 14.8 - - - - W 33 48 18 26 1007.2 1007.2 -
29/06:47pm 14.6 - - - - W 32 50 17 27 1006.9 - -
29/06:30pm 14.6 - - - - W 32 50 17 27 1006.9 - -
29/06:00pm 14.0 - - - - W 35 57 19 31 1006.6 1006.6 -
29/05:30pm 13.5 - - - - WNW 41 67 22 36 1006.4 - -
29/05:00pm 15.2 - - - - WNW 44 67 24 36 1005.2 1005.2 -
29/04:30pm 15.0 - - - - WNW 41 65 22 35 1005.1 - -
29/04:00pm 14.8 - - - - W 32 56 17 30 1005.1 1005.1 -
29/03:30pm 14.1 - - - - WNW 48 72 26 39 1004.9 - -
29/03:00pm 15.9 - - - - WNW 41 61 22 33 1004.4 1004.4 -
29/02:30pm 15.7 - - - - WNW 48 69 26 37 1004.0 - -
29/02:00pm 15.9 - - - - WNW 44 69 24 37 1004.0 1004.0 -
29/01:30pm 15.9 - - - - WNW 46 82 25 44 1003.6 - -
29/01:00pm 16.0 - - - - WNW 46 69 25 37 1003.9 1003.9 -
29/12:30pm 15.4 - - - - WNW 46 67 25 36 1004.3 - -
29/12:00pm 15.2 - - - - WNW 50 70 27 38 1004.8 1004.8 -
29/11:30am 15.7 - - - - WNW 44 76 24 41 1004.8 - -
29/11:00am 15.5 - - - - WNW 41 67 22 36 1004.8 1004.8 -
29/10:30am 14.5 - - - - WNW 46 65 25 35 1004.9 - -
29/10:00am 15.5 - - - - WNW 43 67 23 36 1004.8 1004.8 -
29/09:30am 15.2 - - - - WNW 41 61 22 33 1004.5 - -
29/09:00am 15.0 - - - - NW 35 57 19 31 1004.5 1004.5 -
29/08:30am 14.4 - - - - NW 33 54 18 29 1004.4 - -
29/08:00am 14.5 - - - - WNW 33 54 18 29 1004.6 1004.6 -
29/07:30am 14.2 - - - - WNW 35 59 19 32 1004.8 - -
29/07:26am 14.0 - - - - WNW 28 48 15 26 1005.0 - -
29/07:00am 14.1 - - - - NW 32 48 17 26 1004.8 1004.8 -
29/06:30am 14.3 - - - - NW 30 50 16 27 1004.5 - -
29/06:07am 13.9 - - - - NW 32 50 17 27 1004.6 - -
29/06:00am 13.8 - - - - NW 32 48 17 26 1004.7 1004.7 -
29/05:30am 13.9 - - - - NW 30 52 16 28 1004.4 - -
29/05:08am 13.7 - - - - NW 37 57 20 31 1004.6 - -
29/05:00am 13.6 - - - - NNW 39 57 21 31 1004.3 1004.3 -
29/04:35am 13.2 - - - - NW 32 50 17 27 1004.4 - -
29/04:30am 13.3 - - - - NW 33 50 18 27 1004.5 - -
29/04:00am 13.5 - - - - NW 32 50 17 27 1004.6 1004.6 -
29/03:39am 14.0 - - - - NW 37 57 20 31 1004.6 - -
29/03:30am 14.0 - - - - NW 35 50 19 27 1004.6 - -
29/03:00am 14.1 - - - - NW 35 56 19 30 1005.0 1005.0 -
29/02:30am 13.7 - - - - NNW 35 59 19 32 1005.4 - -
29/02:14am 13.7 - - - - NNW 37 59 20 32 1005.4 - -
29/02:00am 13.6 - - - - NNW 37 52 20 28 1005.5 1005.5 -
29/01:30am 13.8 - - - - NW 35 59 19 32 1006.0 - -
29/01:26am 13.7 - - - - NNW 33 59 18 32 1006.0 - -
29/01:00am 13.6 - - - - NNW 33 46 18 25 1006.6 1006.6 -
29/12:30am 13.3 - - - - NNW 33 54 18 29 1007.0 - -
29/12:13am 13.3 - - - - NNW 33 56 18 30 1007.2 - -
29/12:00am 13.3 - - - - NNW 33 46 18 25 1007.5 1007.5 -
 
Date/Time
EST
Temp
°C
App
Temp
°C
Dew
Point
Rel
Hum
%
Delta-T
°C
Wind Press
QNH
hPa
Press
MSL
hPa
Rain
since 9 am
mm
Dir
 
Spd
km/h
Gust
km/h
Spd
kts
Gust
kts
28/11:30pm 13.0 - - - - NNW 32 44 17 24 1007.9 - -
28/11:00pm 13.2 - - - - NNW 32 43 17 23 1008.3 1008.3 -
28/10:30pm 12.9 - - - - NNW 30 44 16 24 1008.7 - -
28/10:00pm 12.9 - - - - NNW 30 43 16 23 1009.1 1009.1 -
28/09:30pm 12.9 - - - - NNW 22 32 12 17 1009.2 - -
28/09:00pm 13.2 - - - - NNW 32 48 17 26 1009.5 1009.5 -
28/08:30pm 13.9 - - - - NW 28 43 15 23 1009.3 - -
28/08:00pm 14.0 - - - - NNW 28 41 15 22 1009.1 1009.1 -
28/07:30pm 14.1 - - - - NNW 26 41 14 22 1009.1 - -
28/07:00pm 14.1 - - - - NNW 24 37 13 20 1009.4 1009.4 -
28/06:30pm 14.5 - - - - NNW 28 48 15 26 1009.4 - -
28/06:29pm 14.5 - - - - NNW 28 48 15 26 1009.4 - -
28/06:00pm 14.7 - - - - NW 22 33 12 18 1009.7 1009.7 -
28/05:30pm 15.1 - - - - NW 22 33 12 18 1009.5 - -

Other Formats:

Comma delimited format used in spreadsheet applications
http://www.bom.gov.au/fwo/IDV60801/IDV60801.95826.axf

JavaScript Object Notation format (JSON) in row-major order
http://www.bom.gov.au/fwo/IDV60801/IDV60801.95826.json